Time;durP1;ratioP1;P1;durP2;ratioP2;P2;SDS_P1;SDS_P2;PMS_P1;PMS_P2;Temp;Humidity;BMP_temperature;BMP_pressure;BME280_temperature;BME280_humidity;BME280_pressure;Samples;Min_cycle;Max_cycle;Signal;HPM_P1;HPM_P2
2024/01/01 00:01:48;;;;;;;52.78;36.22;;;5.30;1.00;;;;;;7383249;19;20006;-69
2024/01/01 00:04:18;;;;;;;50.15;35.53;;;5.40;1.00;;;;;;7380716;19;20018;-69
2024/01/01 00:06:48;;;;;;;54.75;35.47;;;5.50;1.00;;;;;;7383563;19;20022;-69
2024/01/01 00:09:21;;;;;;;54.65;36.95;;;5.60;1.00;;;;;;7381605;19;20010;-69
2024/01/01 00:11:51;;;;;;;54.83;37.65;;;5.60;1.00;;;;;;7384197;19;20010;-70
2024/01/01 00:14:21;;;;;;;56.10;38.20;;;5.70;1.00;;;;;;7381896;19;20017;-69
2024/01/01 00:16:51;;;;;;;53.40;36.25;;;5.70;1.00;;;;;;7383192;19;20006;-69
2024/01/01 00:19:21;;;;;;;54.25;39.03;;;5.70;1.00;;;;;;7382826;19;20027;-68
2024/01/01 00:21:51;;;;;;;59.83;38.03;;;5.70;1.00;;;;;;7383615;19;20046;-69
2024/01/01 00:24:24;;;;;;;54.03;36.55;;;5.70;1.00;;;;;;7382800;19;20094;-69
2024/01/01 00:26:54;;;;;;;50.30;35.10;;;5.70;1.00;;;;;;7382809;19;20379;-69
2024/01/01 00:29:24;;;;;;;47.05;32.00;;;5.70;1.00;;;;;;7382530;19;20020;-69
2024/01/01 00:32:05;;;;;;;47.42;30.95;;;5.70;1.00;;;;;;7382077;19;20009;-69
2024/01/01 00:34:36;;;;;;;43.35;28.52;;;5.60;1.00;;;;;;7381153;19;20009;-69
2024/01/01 00:37:07;;;;;;;41.72;28.15;;;5.60;1.00;;;;;;7380496;19;20074;-70
2024/01/01 00:39:39;;;;;;;37.47;24.77;;;5.60;1.00;;;;;;7374518;19;20030;-69
2024/01/01 00:42:09;;;;;;;34.28;22.42;;;5.60;1.00;;;;;;7376153;19;20010;-69
2024/01/01 00:44:40;;;;;;;34.55;21.88;;;5.70;1.00;;;;;;7376092;19;20006;-69
2024/01/01 00:47:11;;;;;;;28.52;19.73;;;5.70;1.00;;;;;;7376900;19;20122;-70
2024/01/01 00:49:41;;;;;;;26.90;18.17;;;5.60;1.00;;;;;;7377874;19;20075;-70
2024/01/01 00:52:11;;;;;;;24.45;16.63;;;5.70;1.00;;;;;;7377539;19;20086;-70
2024/01/01 00:54:43;;;;;;;26.20;15.80;;;5.70;1.00;;;;;;7375589;19;20011;-70
2024/01/01 00:57:13;;;;;;;21.17;13.80;;;5.70;1.00;;;;;;7377171;19;20014;-69
2024/01/01 00:59:43;;;;;;;21.13;14.07;;;5.70;1.00;;;;;;7377818;19;20014;-69
2024/01/01 01:02:13;;;;;;;20.25;12.80;;;5.70;1.00;;;;;;7378259;19;20014;-69
2024/01/01 01:04:45;;;;;;;22.75;13.60;;;5.70;1.00;;;;;;7379781;19;20010;-70
2024/01/01 01:07:35;;;;;;;19.02;12.57;;;5.70;1.00;;;;;;7072167;19;2003937;-70
2024/01/01 01:10:09;;;;;;;17.92;11.95;;;5.70;1.00;;;;;;7377815;19;20035;-70
2024/01/01 01:12:39;;;;;;;18.58;10.95;;;5.70;1.00;;;;;;7378820;19;20454;-69
2024/01/01 01:15:10;;;;;;;16.98;11.40;;;5.70;1.00;;;;;;7377922;19;20421;-72
2024/01/01 01:17:40;;;;;;;16.38;11.13;;;5.70;1.00;;;;;;7375710;19;20033;-70
2024/01/01 01:20:11;;;;;;;17.23;11.20;;;5.60;1.00;;;;;;7377667;19;20404;-71
2024/01/01 01:22:41;;;;;;;18.48;11.85;;;5.60;1.00;;;;;;7378785;19;20006;-68
2024/01/01 01:25:14;;;;;;;24.25;11.88;;;5.70;1.00;;;;;;7373830;19;20266;-69
2024/01/01 01:27:44;;;;;;;18.05;11.00;;;5.70;1.00;;;;;;7375840;19;20014;-69
2024/01/01 01:30:15;;;;;;;16.90;10.57;;;5.70;1.00;;;;;;7374639;19;20022;-69
2024/01/01 01:32:45;;;;;;;20.30;11.15;;;5.70;1.00;;;;;;7375019;19;20017;-69
2024/01/01 01:35:15;;;;;;;17.02;10.20;;;5.80;1.00;;;;;;7374855;19;20018;-69
2024/01/01 01:37:46;;;;;;;16.73;9.98;;;5.80;1.00;;;;;;7374651;19;20011;-69
2024/01/01 01:40:19;;;;;;;16.27;10.48;;;5.80;1.00;;;;;;7376675;19;20017;-69
2024/01/01 01:42:50;;;;;;;16.40;10.07;;;5.80;1.00;;;;;;7376901;19;20010;-70
2024/01/01 01:45:20;;;;;;;16.77;10.60;;;5.80;1.00;;;;;;7377921;19;20011;-70
2024/01/01 01:47:50;;;;;;;16.80;9.85;;;5.70;1.00;;;;;;7377609;19;20010;-69
2024/01/01 01:50:21;;;;;;;17.35;10.75;;;5.70;1.00;;;;;;7377577;19;20027;-69
2024/01/01 01:52:51;;;;;;;19.40;11.35;;;5.60;1.00;;;;;;7377586;19;20003;-69
2024/01/01 01:55:24;;;;;;;17.90;11.35;;;5.60;1.00;;;;;;7377062;19;20015;-69
2024/01/01 01:57:54;;;;;;;19.13;10.93;;;5.60;1.00;;;;;;7375474;19;20496;-70
2024/01/01 02:00:24;;;;;;;18.00;10.85;;;5.50;1.00;;;;;;7373278;19;20014;-69
2024/01/01 02:02:57;;;;;;;16.02;10.98;;;5.50;1.00;;;;;;7378114;19;20011;-69
2024/01/01 02:05:27;;;;;;;15.52;9.68;;;5.40;1.00;;;;;;7375021;19;20014;-69
2024/01/01 02:07:57;;;;;;;17.05;9.70;;;5.50;1.00;;;;;;7376116;19;20521;-69
2024/01/01 02:10:29;;;;;;;15.18;10.07;;;5.50;1.00;;;;;;7377577;19;20011;-69
2024/01/01 02:13:03;;;;;;;14.32;9.40;;;5.50;1.00;;;;;;7378324;19;20182;-69
2024/01/01 02:15:33;;;;;;;16.45;10.13;;;5.50;1.00;;;;;;7380635;19;20026;-69
2024/01/01 02:18:03;;;;;;;17.92;9.73;;;5.50;1.00;;;;;;7380140;19;20528;-69
2024/01/01 02:20:33;;;;;;;15.52;9.30;;;5.50;1.00;;;;;;7377164;19;20074;-69
2024/01/01 02:23:06;;;;;;;21.02;10.27;;;5.50;1.00;;;;;;7377581;19;20019;-69
2024/01/01 02:25:36;;;;;;;15.65;9.48;;;5.40;1.00;;;;;;7376592;19;20011;-70
2024/01/01 02:28:07;;;;;;;14.35;8.48;;;5.40;1.00;;;;;;7378573;19;20010;-70
2024/01/01 02:30:37;;;;;;;11.15;8.10;;;5.50;1.00;;;;;;7377240;19;20467;-69
2024/01/01 02:33:11;;;;;;;12.75;7.68;;;5.60;1.00;;;;;;7378761;19;20013;-70
2024/01/01 02:35:42;;;;;;;15.13;7.82;;;5.70;1.00;;;;;;7375232;19;20396;-70
2024/01/01 02:38:15;;;;;;;14.23;6.05;;;5.80;1.00;;;;;;7375609;19;20018;-69
2024/01/01 02:40:45;;;;;;;8.35;5.95;;;5.80;1.00;;;;;;7376728;19;20011;-70
2024/01/01 02:43:15;;;;;;;8.77;5.78;;;5.90;1.00;;;;;;7376068;19;20029;-70
2024/01/01 02:45:45;;;;;;;9.07;5.68;;;5.90;1.00;;;;;;7376731;19;20018;-69
2024/01/01 02:48:15;;;;;;;9.45;5.15;;;5.90;1.00;;;;;;7375361;19;20014;-69
2024/01/01 02:50:45;;;;;;;5.60;3.97;;;5.90;1.00;;;;;;7375397;19;20011;-69
2024/01/01 02:53:18;;;;;;;8.13;4.43;;;5.90;1.00;;;;;;7379128;19;20021;-69
2024/01/01 02:55:48;;;;;;;8.48;4.45;;;6.00;1.00;;;;;;7377626;19;20550;-70
2024/01/01 02:58:18;;;;;;;8.23;4.72;;;6.00;1.00;;;;;;7378508;19;20018;-69
2024/01/01 03:00:48;;;;;;;9.15;4.80;;;6.00;1.00;;;;;;7373910;19;20017;-69
2024/01/01 03:03:18;;;;;;;6.32;4.53;;;6.00;1.00;;;;;;7387215;19;20015;-69
2024/01/01 03:05:48;;;;;;;7.65;4.60;;;5.90;1.00;;;;;;7391832;19;20652;-69
2024/01/01 03:08:21;;;;;;;8.18;4.63;;;5.90;1.00;;;;;;7390494;19;20090;-69
2024/01/01 03:10:51;;;;;;;7.35;4.18;;;5.90;1.00;;;;;;7388834;19;20010;-70
2024/01/01 03:13:21;;;;;;;8.73;4.22;;;5.90;1.00;;;;;;7391147;19;20026;-69
2024/01/01 03:15:51;;;;;;;10.38;4.57;;;5.90;1.00;;;;;;7389471;19;20018;-69
2024/01/01 03:18:21;;;;;;;6.60;3.97;;;6.00;1.00;;;;;;7389939;19;20019;-69
2024/01/01 03:20:51;;;;;;;5.32;3.65;;;6.10;1.00;;;;;;7390252;19;20018;-69
2024/01/01 03:23:24;;;;;;;5.30;3.22;;;6.10;1.00;;;;;;7389894;19;20017;-69
2024/01/01 03:25:54;;;;;;;7.18;3.38;;;6.10;1.00;;;;;;7389090;19;20010;-70
2024/01/01 03:28:24;;;;;;;5.00;3.10;;;6.10;1.00;;;;;;7389555;19;20482;-70
2024/01/01 03:30:54;;;;;;;6.38;3.00;;;6.20;1.00;;;;;;7390311;19;20015;-69
2024/01/01 03:33:24;;;;;;;6.88;3.95;;;6.20;1.00;;;;;;7390291;19;20011;-69
2024/01/01 03:35:54;;;;;;;5.63;3.20;;;6.20;1.00;;;;;;7387981;19;20006;-69
2024/01/01 03:38:27;;;;;;;7.95;3.60;;;6.20;1.00;;;;;;7389694;19;20039;-69
2024/01/01 03:40:57;;;;;;;7.35;3.35;;;6.20;1.00;;;;;;7389655;19;20003;-69
2024/01/01 03:43:27;;;;;;;8.30;4.57;;;6.10;1.00;;;;;;7389636;19;20043;-69
2024/01/01 03:45:57;;;;;;;5.43;3.78;;;6.10;1.00;;;;;;7389701;19;20033;-70
2024/01/01 03:48:27;;;;;;;5.10;3.65;;;6.10;1.00;;;;;;7389140;19;20014;-70
2024/01/01 03:50:57;;;;;;;5.07;3.25;;;6.10;1.00;;;;;;7389632;19;20002;-70
2024/01/01 03:53:32;;;;;;;5.97;3.13;;;6.10;1.00;;;;;;7389681;19;20018;-69
2024/01/01 03:56:03;;;;;;;6.85;3.53;;;6.10;1.00;;;;;;7389086;19;20015;-69
2024/01/01 03:58:33;;;;;;;7.13;3.47;;;6.20;1.00;;;;;;7388460;19;20049;-68
2024/01/01 04:01:03;;;;;;;5.47;2.90;;;6.10;1.00;;;;;;7384889;19;20380;-70
2024/01/01 04:03:33;;;;;;;6.38;3.45;;;6.10;1.00;;;;;;7387219;19;20037;-70
2024/01/01 04:06:03;;;;;;;4.32;3.03;;;6.10;1.00;;;;;;7389273;19;20010;-69
2024/01/01 04:08:35;;;;;;;4.90;2.83;;;6.00;1.00;;;;;;7387879;19;20071;-69
2024/01/01 04:11:06;;;;;;;4.70;3.03;;;6.00;1.00;;;;;;7386962;19;20011;-69
2024/01/01 04:13:36;;;;;;;5.22;2.92;;;6.00;1.00;;;;;;7381842;19;20026;-69
2024/01/01 04:16:08;;;;;;;5.57;2.88;;;5.90;1.00;;;;;;7379647;19;20007;-69
2024/01/01 04:18:39;;;;;;;6.07;2.40;;;5.90;1.00;;;;;;7379756;19;20013;-69
2024/01/01 04:21:09;;;;;;;4.68;2.45;;;5.80;1.00;;;;;;7381116;19;20007;-69
2024/01/01 04:23:42;;;;;;;4.97;2.65;;;5.80;1.00;;;;;;7380238;19;20526;-68
2024/01/01 04:26:13;;;;;;;8.05;3.55;;;5.70;1.00;;;;;;7380857;19;20006;-69
2024/01/01 04:28:44;;;;;;;6.72;2.35;;;5.70;1.00;;;;;;7379794;19;20424;-69
2024/01/01 04:31:14;;;;;;;5.32;2.78;;;5.60;1.00;;;;;;7375673;19;20035;-68
2024/01/01 04:33:44;;;;;;;5.63;2.47;;;5.60;1.00;;;;;;7380916;19;20037;-69
2024/01/01 04:36:14;;;;;;;4.95;2.63;;;5.70;1.00;;;;;;7379703;19;20081;-68
2024/01/01 04:38:46;;;;;;;4.93;2.50;;;5.70;1.00;;;;;;7383361;19;20395;-68
2024/01/01 04:41:17;;;;;;;4.47;2.30;;;5.70;1.00;;;;;;7384624;19;20404;-69
2024/01/01 04:43:47;;;;;;;3.78;2.08;;;5.70;1.00;;;;;;7381726;19;20025;-68
2024/01/01 04:46:17;;;;;;;12.35;3.75;;;5.70;1.00;;;;;;7379229;19;20539;-69
2024/01/01 04:48:47;;;;;;;3.70;2.50;;;5.70;1.00;;;;;;7379060;19;20021;-69
2024/01/01 04:51:17;;;;;;;5.10;2.30;;;5.60;1.00;;;;;;7380121;19;20018;-69
2024/01/01 04:53:54;;;;;;;4.20;2.13;;;5.50;1.00;;;;;;7380727;19;20002;-69
2024/01/01 04:56:24;;;;;;;;;;;5.50;1.00;;;;;;7381360;19;20016;-69
2024/01/01 04:58:55;;;;;;;8.48;2.85;;;5.40;1.00;;;;;;7376969;19;20260;-70
2024/01/01 05:01:26;;;;;;;4.70;2.50;;;5.30;1.00;;;;;;7377460;19;20027;-69
2024/01/01 05:03:56;;;;;;;5.03;2.85;;;5.30;1.00;;;;;;7374463;19;20877;-69
2024/01/01 05:06:26;;;;;;;5.70;3.08;;;5.20;1.00;;;;;;7379039;19;20015;-71
2024/01/01 05:08:58;;;;;;;10.50;2.88;;;5.20;1.00;;;;;;7378718;19;20014;-69
2024/01/01 05:11:29;;;;;;;10.00;3.67;;;5.20;1.00;;;;;;7379912;19;20007;-69
2024/01/01 05:13:59;;;;;;;5.82;2.47;;;5.10;1.00;;;;;;7378700;19;20007;-69
2024/01/01 05:16:29;;;;;;;6.25;3.28;;;5.20;1.00;;;;;;7379039;19;20006;-69
2024/01/01 05:18:59;;;;;;;4.60;2.10;;;5.20;1.00;;;;;;7378399;19;20017;-69
2024/01/01 05:21:29;;;;;;;7.32;2.65;;;5.20;1.00;;;;;;7378062;19;20037;-68
2024/01/01 05:24:02;;;;;;;5.97;2.55;;;5.20;1.00;;;;;;7378564;19;20140;-69
2024/01/01 05:26:32;;;;;;;5.43;2.83;;;5.20;1.00;;;;;;7377504;19;20466;-69
2024/01/01 05:29:02;;;;;;;7.80;2.83;;;5.30;1.00;;;;;;7376000;19;20480;-69
2024/01/01 05:31:32;;;;;;;5.13;2.13;;;5.40;1.00;;;;;;7378455;19;20054;-69
2024/01/01 05:34:02;;;;;;;6.75;1.85;;;5.40;1.00;;;;;;7378661;19;20003;-69
2024/01/01 05:36:32;;;;;;;6.05;1.67;;;5.60;1.00;;;;;;7379252;19;20003;-69
2024/01/01 05:39:05;;;;;;;4.03;1.10;;;5.70;1.00;;;;;;7379783;19;20011;-69
2024/01/01 05:41:35;;;;;;;3.97;1.40;;;5.70;1.00;;;;;;7378044;19;20077;-70
2024/01/01 05:44:05;;;;;;;4.78;1.30;;;5.60;1.00;;;;;;7379114;19;20380;-69
2024/01/01 05:46:35;;;;;;;5.82;1.27;;;5.70;1.00;;;;;;7378154;19;20026;-69
2024/01/01 05:49:05;;;;;;;5.45;1.30;;;5.70;1.00;;;;;;7377622;19;20014;-69
2024/01/01 05:51:35;;;;;;;3.72;1.25;;;5.80;1.00;;;;;;7379087;19;20036;-69
2024/01/01 05:54:08;;;;;;;3.33;1.50;;;5.80;1.00;;;;;;7378571;19;20014;-70
2024/01/01 05:56:38;;;;;;;4.32;1.50;;;5.90;1.00;;;;;;7377708;19;20375;-69
2024/01/01 05:59:08;;;;;;;3.55;1.15;;;5.90;1.00;;;;;;7377186;19;20352;-70
2024/01/01 06:01:38;;;;;;;4.07;1.45;;;6.00;1.00;;;;;;7375743;19;20377;-70
2024/01/01 06:04:09;;;;;;;6.85;1.30;;;6.00;1.00;;;;;;7377283;19;20013;-70
2024/01/01 06:06:39;;;;;;;7.55;1.30;;;6.00;1.00;;;;;;7376880;19;20006;-70
2024/01/01 06:09:11;;;;;;;3.22;1.20;;;6.00;1.00;;;;;;7377865;19;20017;-70
2024/01/01 06:11:41;;;;;;;2.85;1.10;;;6.00;1.00;;;;;;7376326;19;20010;-69
2024/01/01 06:14:11;;;;;;;6.75;1.48;;;6.00;1.00;;;;;;7377440;19;20010;-70
2024/01/01 06:16:43;;;;;;;4.57;1.23;;;6.00;1.00;;;;;;7377430;19;20015;-70
2024/01/01 06:19:14;;;;;;;5.82;1.20;;;6.10;1.00;;;;;;7377303;19;20338;-68
2024/01/01 06:21:44;;;;;;;6.00;1.55;;;6.20;1.00;;;;;;7376531;19;20117;-69
2024/01/01 06:24:16;;;;;;;5.60;2.10;;;6.30;1.00;;;;;;7377268;19;20035;-70
2024/01/01 06:26:46;;;;;;;4.22;1.00;;;6.30;1.00;;;;;;7376614;19;20404;-69
2024/01/01 06:29:16;;;;;;;5.00;1.65;;;6.30;1.00;;;;;;7375411;19;20010;-69
2024/01/01 06:31:47;;;;;;;2.92;1.30;;;6.30;1.00;;;;;;7376710;19;20070;-69
2024/01/01 06:34:17;;;;;;;5.60;1.33;;;6.30;1.00;;;;;;7377201;19;20069;-69
2024/01/01 06:36:47;;;;;;;4.80;1.10;;;6.30;1.00;;;;;;7374164;19;20014;-69
2024/01/01 06:39:20;;;;;;;3.75;1.00;;;6.30;1.00;;;;;;7376089;19;20014;-69
2024/01/01 06:41:50;;;;;;;6.25;1.50;;;6.30;1.00;;;;;;7376380;19;21449;-69
2024/01/01 06:44:20;;;;;;;4.22;1.38;;;6.20;1.00;;;;;;7377419;19;25530;-70
2024/01/01 06:46:50;;;;;;;4.90;1.10;;;6.10;1.00;;;;;;7376132;19;20010;-70
2024/01/01 06:49:20;;;;;;;8.75;1.63;;;6.00;1.00;;;;;;7376109;19;20010;-69
2024/01/01 06:51:52;;;;;;;5.18;1.33;;;5.90;1.00;;;;;;7375269;19;20067;-68
2024/01/01 06:54:24;;;;;;;6.13;1.65;;;5.80;1.00;;;;;;7377110;19;20015;-68
2024/01/01 06:56:54;;;;;;;3.45;1.30;;;5.70;1.00;;;;;;7376901;19;20021;-69
2024/01/01 06:59:29;;;;;;;6.07;1.20;;;5.80;1.00;;;;;;7376115;19;20032;-69
2024/01/01 07:02:01;;;;;;;7.25;1.27;;;5.70;1.00;;;;;;7381600;19;20035;-68
2024/01/01 07:04:31;;;;;;;7.72;1.88;;;5.70;1.00;;;;;;7380410;19;20762;-69
2024/01/01 07:07:01;;;;;;;6.43;1.00;;;5.80;1.00;;;;;;7378361;19;20015;-70
2024/01/01 07:09:33;;;;;;;4.93;1.30;;;5.70;1.00;;;;;;7376389;19;20015;-69
2024/01/01 07:12:19;;;;;;;5.20;1.30;;;5.70;1.00;;;;;;7375478;19;20016;-69
2024/01/01 07:14:49;;;;;;;8.68;1.08;;;5.70;1.00;;;;;;6865651;19;2004773;-69
2024/01/01 07:17:20;;;;;;;6.20;1.20;;;5.70;1.00;;;;;;7376147;19;20094;-69
2024/01/01 07:19:52;;;;;;;3.22;1.23;;;5.60;1.00;;;;;;7375855;19;20507;-69
2024/01/01 07:22:22;;;;;;;4.90;1.42;;;5.50;1.00;;;;;;7376322;19;20014;-69
2024/01/01 07:24:55;;;;;;;8.15;1.73;;;5.50;1.00;;;;;;7376921;19;20050;-69
2024/01/01 07:27:25;;;;;;;6.25;1.50;;;5.50;1.00;;;;;;7374998;19;20031;-69
2024/01/01 07:29:56;;;;;;;5.68;1.90;;;5.50;1.00;;;;;;7376813;19;20487;-69
2024/01/01 07:32:26;;;;;;;7.85;1.73;;;5.40;1.00;;;;;;7375405;19;20006;-69
2024/01/01 07:34:56;;;;;;;5.63;1.58;;;5.50;1.00;;;;;;7376661;19;20336;-69
2024/01/01 07:37:26;;;;;;;3.90;1.17;;;5.50;1.00;;;;;;7375334;19;20010;-69
2024/01/01 07:39:59;;;;;;;6.18;1.60;;;5.60;1.00;;;;;;7375962;19;20015;-69
2024/01/01 07:42:29;;;;;;;6.18;1.70;;;5.70;1.00;;;;;;7375397;19;20007;-69
2024/01/01 07:45:00;;;;;;;5.95;1.08;;;5.70;1.00;;;;;;7376588;19;20014;-70
2024/01/01 07:47:30;;;;;;;5.05;1.15;;;5.70;1.00;;;;;;7375665;19;20006;-70
2024/01/01 07:50:01;;;;;;;2.67;0.82;;;5.70;1.00;;;;;;7382479;19;20473;-70
2024/01/01 07:52:31;;;;;;;3.97;1.30;;;5.70;1.00;;;;;;7382560;19;20485;-70
2024/01/01 07:55:04;;;;;;;6.53;1.10;;;5.70;1.00;;;;;;7383061;19;20063;-70
2024/01/01 07:57:34;;;;;;;5.35;1.15;;;5.70;1.00;;;;;;7381301;19;20374;-70
2024/01/01 08:00:04;;;;;;;3.78;1.00;;;5.80;1.00;;;;;;7381060;19;20014;-70
2024/01/01 08:02:36;;;;;;;4.85;1.27;;;5.80;1.00;;;;;;7381160;19;20014;-71
2024/01/01 08:05:06;;;;;;;4.18;1.08;;;5.90;1.00;;;;;;7382139;19;20015;-71
2024/01/01 08:07:36;;;;;;;5.07;1.33;;;6.00;1.00;;;;;;7378203;19;20014;-71
2024/01/01 08:10:10;;;;;;;6.00;1.20;;;6.00;1.00;;;;;;7379931;19;20114;-69
2024/01/01 08:12:40;;;;;;;3.88;1.05;;;6.10;1.00;;;;;;7380357;19;20018;-69
2024/01/01 08:15:10;;;;;;;5.28;1.30;;;6.20;1.00;;;;;;7380453;19;20025;-69
2024/01/01 08:17:40;;;;;;;3.60;1.00;;;6.20;1.00;;;;;;7381225;19;20018;-69
2024/01/01 08:20:13;;;;;;;7.07;1.17;;;6.20;1.00;;;;;;7379576;19;20017;-69
2024/01/01 08:22:43;;;;;;;3.60;1.02;;;6.20;1.00;;;;;;7380766;19;20007;-69
2024/01/01 08:25:16;;;;;;;5.13;1.17;;;6.20;1.00;;;;;;7380277;19;19998;-69
2024/01/01 08:27:47;;;;;;;6.57;1.23;;;6.20;1.00;;;;;;7380518;19;20018;-69
2024/01/01 08:30:17;;;;;;;3.35;0.90;;;6.20;1.00;;;;;;7378696;19;20056;-69
2024/01/01 08:32:47;;;;;;;2.97;1.00;;;6.10;1.00;;;;;;7380255;19;20013;-69
2024/01/01 08:35:17;;;;;;;4.32;1.23;;;6.10;1.00;;;;;;7379972;19;20089;-70
2024/01/01 08:37:48;;;;;;;4.38;1.42;;;6.10;1.00;;;;;;7380619;19;20010;-69
2024/01/01 08:40:21;;;;;;;2.65;1.00;;;6.10;1.00;;;;;;7380656;19;20010;-69
2024/01/01 08:42:51;;;;;;;4.28;1.15;;;6.10;1.00;;;;;;7380083;19;20007;-69
2024/01/01 08:45:22;;;;;;;1.83;0.65;;;6.10;1.00;;;;;;7379927;19;20017;-69
2024/01/01 08:47:51;;;;;;;4.25;0.70;;;6.20;1.00;;;;;;7380020;19;20017;-69
2024/01/01 08:50:22;;;;;;;2.55;0.60;;;6.20;1.00;;;;;;7378865;19;20056;-70
2024/01/01 08:52:52;;;;;;;4.72;1.45;;;6.20;1.00;;;;;;7379040;19;20018;-69
2024/01/01 08:55:24;;;;;;;3.35;1.05;;;6.20;1.00;;;;;;7379177;19;20982;-70
2024/01/01 08:57:54;;;;;;;3.42;0.85;;;6.30;1.00;;;;;;7379771;19;20018;-69
2024/01/01 09:00:25;;;;;;;3.22;0.80;;;6.30;1.00;;;;;;7375168;19;20019;-70
2024/01/01 09:02:56;;;;;;;3.30;0.95;;;6.40;1.00;;;;;;7376406;19;20502;-69
2024/01/01 09:05:27;;;;;;;8.18;1.25;;;6.40;1.00;;;;;;7374570;19;20494;-69
2024/01/01 09:07:58;;;;;;;3.90;1.17;;;6.40;1.00;;;;;;7374169;19;20018;-69
2024/01/01 09:10:31;;;;;;;3.00;1.27;;;6.50;1.00;;;;;;7377590;19;20021;-69
2024/01/01 09:13:02;;;;;;;2.92;1.05;;;6.50;1.00;;;;;;7375645;19;20027;-69
2024/01/01 09:15:32;;;;;;;5.68;1.15;;;6.50;1.00;;;;;;7375514;19;20010;-70
2024/01/01 09:18:03;;;;;;;3.63;0.90;;;6.60;1.00;;;;;;7377391;19;20007;-69
2024/01/01 09:20:34;;;;;;;5.68;1.58;;;6.60;1.00;;;;;;7375219;19;20026;-69
2024/01/01 09:23:05;;;;;;;2.90;1.02;;;6.70;1.00;;;;;;7374019;19;20027;-69
2024/01/01 09:25:41;;;;;;;5.07;1.42;;;6.70;1.00;;;;;;7368972;19;20021;-70
2024/01/01 09:28:12;;;;;;;4.57;1.25;;;6.70;1.00;;;;;;7363430;19;20553;-69
2024/01/01 09:30:42;;;;;;;3.65;1.30;;;6.80;1.00;;;;;;7374076;19;20060;-70
2024/01/01 09:33:13;;;;;;;4.18;1.35;;;6.80;1.00;;;;;;7361126;19;20014;-68
2024/01/01 09:35:45;;;;;;;6.60;1.20;;;6.90;1.00;;;;;;7371953;19;20046;-68
2024/01/01 09:38:16;;;;;;;7.05;1.17;;;6.80;1.00;;;;;;7374855;19;20373;-69
2024/01/01 09:40:49;;;;;;;4.20;1.20;;;6.90;1.00;;;;;;7379112;19;20010;-69
2024/01/01 09:43:20;;;;;;;3.80;1.40;;;6.80;1.00;;;;;;7379367;19;20031;-70
2024/01/01 09:45:50;;;;;;;7.70;1.60;;;6.90;1.00;;;;;;7377466;19;20018;-69
2024/01/01 09:48:20;;;;;;;4.10;1.33;;;6.90;1.00;;;;;;7376267;19;20015;-69
2024/01/01 09:50:51;;;;;;;5.97;1.30;;;6.90;1.00;;;;;;7377725;19;20047;-69
2024/01/01 09:53:26;;;;;;;7.10;1.25;;;7.00;1.00;;;;;;7377972;19;20007;-69
2024/01/01 09:55:58;;;;;;;6.60;1.50;;;7.20;1.00;;;;;;7376663;19;20014;-70
2024/01/01 09:58:28;;;;;;;7.32;1.85;;;7.30;1.00;;;;;;7376637;19;20010;-69
2024/01/01 10:01:11;;;;;;;5.35;1.77;;;7.50;1.00;;;;;;7375913;19;20022;-69
2024/01/01 10:03:41;;;;;;;3.40;1.40;;;7.60;1.00;;;;;;7377927;19;20010;-69
2024/01/01 10:06:13;;;;;;;2.95;1.05;;;7.70;1.00;;;;;;7377950;19;20463;-70
2024/01/01 10:08:43;;;;;;;3.88;1.13;;;7.80;1.00;;;;;;7376990;19;20014;-69
2024/01/01 10:11:21;;;;;;;3.88;1.20;;;7.90;1.00;;;;;;7376865;19;20028;-69
2024/01/01 10:13:52;;;;;;;5.63;1.45;;;8.10;1.00;;;;;;7373328;19;20011;-69
2024/01/01 10:16:27;;;;;;;6.45;1.30;;;8.20;1.00;;;;;;7375432;19;20019;-69
2024/01/01 10:18:58;;;;;;;4.03;1.30;;;8.10;1.00;;;;;;7375500;19;20013;-70
2024/01/01 10:21:30;;;;;;;4.00;1.30;;;8.20;1.00;;;;;;7375591;19;20063;-70
2024/01/01 10:24:02;;;;;;;4.53;1.10;;;8.10;1.00;;;;;;7377635;19;20405;-70
2024/01/01 10:26:45;;;;;;;5.32;1.50;;;8.20;1.00;;;;;;7377671;19;20073;-68
2024/01/01 10:29:18;;;;;;;6.30;1.30;;;8.30;1.00;;;;;;7378456;19;20470;-69
2024/01/01 10:31:50;;;;;;;4.68;1.40;;;8.40;1.00;;;;;;7375941;19;20010;-69
2024/01/01 10:34:21;;;;;;;5.38;1.50;;;8.60;1.00;;;;;;7375909;19;20010;-69
2024/01/01 10:36:51;;;;;;;4.88;1.75;;;8.60;1.00;;;;;;7375802;19;20010;-69
2024/01/01 10:39:22;;;;;;;6.63;1.23;;;8.70;1.00;;;;;;7375082;19;20010;-70
2024/01/01 10:41:55;;;;;;;8.43;1.63;;;8.80;1.00;;;;;;7376674;19;20360;-70
2024/01/01 10:44:25;;;;;;;3.65;1.40;;;8.90;1.00;;;;;;7375123;19;20070;-70
2024/01/01 10:46:59;;;;;;;5.45;1.30;;;8.80;1.00;;;;;;7377720;19;20015;-69
2024/01/01 10:49:32;;;;;;;5.97;1.50;;;8.70;1.00;;;;;;7377454;19;20014;-69
2024/01/01 10:52:22;;;;;;;6.95;1.30;;;8.60;1.00;;;;;;7373309;19;20007;-69
2024/01/01 10:55:14;;;;;;;8.00;1.48;;;8.50;1.00;;;;;;7375707;19;20007;-70
2024/01/01 10:58:23;;;;;;;6.10;1.60;;;8.50;1.00;;;;;;7375871;19;20017;-70
2024/01/01 11:01:02;;;;;;;7.60;1.95;;;8.50;1.00;;;;;;6864508;19;2004172;-69
2024/01/01 11:03:35;;;;;;;9.93;1.55;;;8.40;1.00;;;;;;7376521;19;20407;-69
2024/01/01 11:06:24;;;;;;;4.05;1.10;;;8.40;1.00;;;;;;7374661;19;20081;-70
2024/01/01 11:08:55;;;;;;;7.43;1.77;;;8.40;1.00;;;;;;7370341;19;20007;-70
2024/01/01 11:11:27;;;;;;;11.52;1.90;;;8.30;1.00;;;;;;7373928;19;19998;-70
2024/01/01 11:14:01;;;;;;;5.75;1.30;;;8.30;1.00;;;;;;7372819;19;20019;-70
2024/01/01 11:16:50;;;;;;;5.72;1.40;;;8.30;1.00;;;;;;7374306;19;20018;-69
2024/01/01 11:19:51;;;;;;;8.02;1.67;;;8.30;1.00;;;;;;7370778;19;20015;-69
2024/01/01 11:22:30;;;;;;;7.72;2.08;;;8.10;1.00;;;;;;6863492;19;2004564;-69
2024/01/01 11:25:02;;;;;;;4.82;1.63;;;8.10;1.00;;;;;;7379806;19;20086;-70
2024/01/01 11:27:34;;;;;;;5.82;1.63;;;8.10;1.00;;;;;;7381423;19;20028;-69
2024/01/01 11:30:09;;;;;;;6.25;1.73;;;8.20;1.00;;;;;;7381099;19;20070;-69
2024/01/01 11:32:40;;;;;;;5.80;1.55;;;8.30;1.00;;;;;;7382150;19;20519;-69
2024/01/01 11:35:12;;;;;;;7.65;2.03;;;8.30;1.00;;;;;;7382006;19;20011;-69
2024/01/01 11:37:44;;;;;;;8.30;1.90;;;8.30;1.00;;;;;;7381952;19;20017;-69
2024/01/01 11:40:15;;;;;;;7.00;1.42;;;8.40;1.00;;;;;;7382395;19;20496;-69
2024/01/01 11:42:45;;;;;;;5.47;2.03;;;8.40;1.00;;;;;;7381217;19;20051;-69
2024/01/01 11:45:19;;;;;;;4.82;1.58;;;8.50;1.00;;;;;;7382039;19;20097;-69
2024/01/01 11:47:50;;;;;;;7.43;1.73;;;8.60;1.00;;;;;;7384779;19;20467;-69
2024/01/01 11:50:20;;;;;;;7.82;1.90;;;8.60;1.00;;;;;;7384255;19;20725;-70
2024/01/01 11:53:01;;;;;;;9.75;2.75;;;8.50;1.00;;;;;;7380967;19;20018;-70
2024/01/01 11:55:31;;;;;;;7.47;1.98;;;8.60;1.00;;;;;;7375841;19;20014;-69
2024/01/01 11:58:02;;;;;;;6.05;1.60;;;8.70;1.00;;;;;;7379405;19;20014;-69
2024/01/01 12:00:34;;;;;;;4.45;1.77;;;8.70;1.00;;;;;;7382075;19;20418;-68
2024/01/01 12:03:06;;;;;;;7.70;2.15;;;8.60;1.00;;;;;;7380619;19;20825;-69
2024/01/01 12:05:38;;;;;;;6.18;1.80;;;8.60;1.00;;;;;;7358194;19;20822;-69
2024/01/01 12:08:14;;;;;;;8.27;1.65;;;8.50;1.00;;;;;;7378589;19;20006;-69
2024/01/01 12:10:44;;;;;;;5.10;1.45;;;8.50;1.00;;;;;;7381154;19;20482;-69
2024/01/01 12:13:17;;;;;;;8.60;1.67;;;8.50;1.00;;;;;;7380178;19;20051;-69
2024/01/01 12:15:51;;;;;;;7.13;1.55;;;8.40;1.00;;;;;;7379606;19;20013;-69
2024/01/01 12:18:21;;;;;;;5.85;1.88;;;8.00;1.00;;;;;;7378911;19;20006;-70
2024/01/01 12:20:51;;;;;;;8.15;1.95;;;7.80;1.00;;;;;;7380151;19;20074;-69
2024/01/01 12:23:22;;;;;;;9.93;2.20;;;7.70;1.00;;;;;;7380701;19;20010;-69
2024/01/01 12:26:04;;;;;;;7.28;1.70;;;7.70;1.00;;;;;;7379279;19;20415;-69
2024/01/01 12:28:34;;;;;;;6.90;1.83;;;7.90;1.00;;;;;;7378184;19;20027;-70
2024/01/01 12:31:07;;;;;;;4.43;1.67;;;8.00;1.00;;;;;;7379798;19;20509;-70
2024/01/01 12:33:37;;;;;;;6.95;1.50;;;8.10;1.00;;;;;;7379477;19;20355;-70
2024/01/01 12:36:08;;;;;;;10.88;1.95;;;8.10;1.00;;;;;;7376952;19;20136;-70
2024/01/01 12:38:40;;;;;;;8.65;1.85;;;8.20;1.00;;;;;;7380370;19;20465;-69
2024/01/01 12:41:15;;;;;;;6.93;1.67;;;8.20;1.00;;;;;;7379728;19;20013;-69
2024/01/01 12:43:46;;;;;;;5.80;1.42;;;8.30;1.00;;;;;;7380733;19;20450;-69
2024/01/01 12:46:19;;;;;;;7.15;1.50;;;8.30;1.00;;;;;;7379466;19;20014;-71
2024/01/01 12:48:49;;;;;;;6.63;2.00;;;8.40;1.00;;;;;;7378479;19;20335;-70
2024/01/01 12:51:22;;;;;;;11.18;2.60;;;8.50;1.00;;;;;;7380421;19;20014;-70
2024/01/01 12:53:53;;;;;;;8.13;1.52;;;8.50;1.00;;;;;;7378782;19;20086;-69
2024/01/01 12:56:23;;;;;;;8.63;1.63;;;8.50;1.00;;;;;;7380013;19;20049;-68
2024/01/01 12:58:54;;;;;;;8.38;2.03;;;8.50;1.00;;;;;;7379586;19;20007;-70
2024/01/01 13:01:26;;;;;;;6.25;1.63;;;8.60;1.00;;;;;;7379785;19;20483;-70
2024/01/01 13:03:57;;;;;;;6.55;1.95;;;8.60;1.00;;;;;;7379145;19;20086;-70
2024/01/01 13:06:27;;;;;;;5.60;1.92;;;8.60;1.00;;;;;;7380500;19;20062;-70
2024/01/01 13:08:57;;;;;;;9.57;1.75;;;8.60;1.00;;;;;;7377965;19;20026;-68
2024/01/01 13:11:28;;;;;;;7.00;1.83;;;8.60;1.00;;;;;;7379938;19;20022;-70
2024/01/01 13:13:57;;;;;;;7.03;2.25;;;8.50;1.00;;;;;;7379091;19;20430;-70
2024/01/01 13:16:30;;;;;;;6.35;1.92;;;8.50;1.00;;;;;;7379987;19;20037;-70
2024/01/01 13:19:00;;;;;;;6.97;2.10;;;8.50;1.00;;;;;;7377433;19;20690;-70
2024/01/01 13:21:30;;;;;;;8.90;1.95;;;8.50;1.00;;;;;;7380069;19;20009;-70
2024/01/01 13:24:01;;;;;;;11.70;2.00;;;8.50;1.00;;;;;;7379078;19;20010;-69
2024/01/01 13:26:31;;;;;;;8.52;2.15;;;8.50;1.00;;;;;;7378801;19;20025;-70